CYXN

Whale Cove Airport

Whale Cove, Canada
METAR CYXN 232200Z 35011KT 15SM FEW230 M13/M18 A3026 RMK CI2 -13.0/-17.5/0.0MM/LAST STFD OBS/NEXT 241300Z SLP249
Observed Flight Rules
Apr-23 @ 22:00 UTC (48 minutes ago) Visual Flight Rules
Wind Visibility Clouds
350° at 11 knots 15 miles
  • Few at 23,000' AGL
Temperatures Readings
Current -13°C / 9°F
Dewpoint -18°C / -0°F
Humidity 66%
Altimeter 30.26" Hg
Pressure 1024.9 hPa
Elevation 20
METAR CYXN 232200Z 35011KT 15SM FEW230 M13/M18 A3026 RMK CI2 -13.0/-17.5/0.0MM/LAST STFD OBS/NEXT 241300Z SLP249
Observed Flight Rules
Apr-23 @ 22:00 UTC
(48 minutes ago)
VFR
Wind Visibility
350° at 11 knots 15 miles
Clouds
  • Few at 23,000' AGL
Temperature Dewpoint
-13°C / 9°F -18°C / -0°F
Humidity Altimeter Pressure
66% 30.26" Hg 1024.9 hPa